createdAt,value
2022-09-12T00:00:33.601Z,55.18
2022-09-12T00:01:32.631Z,55.60
2022-09-12T00:02:33.314Z,55.74
2022-09-12T00:03:32.563Z,56.01
2022-09-12T00:04:32.549Z,55.52
2022-09-12T00:05:32.569Z,57.95
2022-09-12T00:06:33.342Z,54.83
2022-09-12T00:07:32.548Z,55.62
2022-09-12T00:08:32.554Z,60.74
2022-09-12T00:09:33.309Z,58.30
2022-09-12T00:10:32.521Z,56.76
2022-09-12T00:11:32.578Z,54.09
2022-09-12T00:12:32.526Z,61.56
2022-09-12T00:13:32.529Z,54.35
2022-09-12T00:14:32.500Z,54.79
2022-09-12T00:15:32.514Z,55.83
2022-09-12T00:16:32.524Z,55.34
2022-09-12T00:17:32.469Z,54.92
2022-09-12T00:18:32.553Z,58.54
2022-09-12T00:19:32.457Z,57.50
2022-09-12T00:20:32.445Z,55.49
2022-09-12T00:21:32.460Z,58.57
2022-09-12T00:22:32.461Z,67.51
2022-09-12T00:23:32.434Z,66.61
2022-09-12T00:24:32.421Z,57.15
2022-09-12T00:25:32.417Z,55.58
2022-09-12T00:26:32.425Z,55.85
2022-09-12T00:27:32.405Z,54.90
2022-09-12T00:28:32.397Z,60.70
2022-09-12T00:29:32.437Z,58.16
2022-09-12T00:30:32.401Z,55.50
2022-09-12T00:31:32.527Z,56.59
2022-09-12T00:32:32.405Z,62.04
2022-09-12T00:33:32.376Z,61.00
2022-09-12T00:34:32.365Z,56.52
2022-09-12T00:35:32.371Z,54.78
2022-09-12T00:36:32.353Z,58.06
2022-09-12T00:37:32.345Z,54.93
2022-09-12T00:38:32.330Z,58.90
2022-09-12T00:39:32.337Z,55.12
2022-09-12T00:40:32.381Z,55.39
2022-09-12T00:41:32.336Z,60.11
2022-09-12T00:42:32.381Z,55.30
2022-09-12T00:43:32.326Z,55.14
2022-09-12T00:44:32.305Z,54.79
2022-09-12T00:45:32.360Z,54.88
2022-09-12T00:46:32.296Z,54.77
2022-09-12T00:47:32.310Z,59.34
2022-09-12T00:48:32.295Z,58.70
2022-09-12T00:49:32.308Z,55.86
2022-09-12T00:50:32.280Z,54.92
2022-09-12T00:51:32.253Z,54.78
2022-09-12T00:52:32.285Z,55.84
2022-09-12T00:54:04.676Z,55.09
2022-09-12T00:54:32.233Z,55.21
2022-09-12T00:55:32.234Z,55.37
2022-09-12T00:56:32.240Z,55.22
2022-09-12T00:57:32.224Z,55.84
2022-09-12T00:58:32.202Z,55.57
2022-09-12T00:59:32.236Z,56.62
2022-09-12T01:00:32.200Z,56.49
2022-09-12T01:01:32.876Z,55.62
2022-09-12T01:02:33.179Z,55.81
2022-09-12T01:03:32.172Z,56.79
2022-09-12T01:04:32.192Z,55.99
2022-09-12T01:05:32.170Z,54.11
2022-09-12T01:06:32.160Z,54.61
2022-09-12T01:07:34.063Z,53.48
2022-09-12T01:08:33.153Z,59.03
2022-09-12T01:09:32.147Z,53.05
2022-09-12T01:10:32.180Z,54.14
2022-09-12T01:11:32.124Z,53.60
2022-09-12T01:12:32.120Z,54.57
2022-09-12T01:13:32.116Z,59.86
2022-09-12T01:14:32.120Z,54.32
2022-09-12T01:15:32.103Z,53.90
2022-09-12T01:16:32.141Z,63.55
2022-09-12T01:17:32.088Z,53.87
2022-09-12T01:18:32.095Z,54.38
2022-09-12T01:19:32.107Z,53.59
2022-09-12T01:20:32.072Z,54.71
2022-09-12T01:21:32.112Z,58.33
2022-09-12T01:22:32.058Z,67.34
2022-09-12T01:23:32.044Z,57.26
2022-09-12T01:24:32.059Z,60.11
2022-09-12T01:25:32.028Z,58.58
2022-09-12T01:26:32.043Z,56.02
2022-09-12T01:27:32.032Z,56.32
2022-09-12T01:28:32.024Z,56.33
2022-09-12T01:29:32.020Z,55.03
2022-09-12T01:30:32.019Z,64.48
2022-09-12T01:31:32.008Z,54.89
2022-09-12T01:32:31.992Z,55.10
2022-09-12T01:33:31.994Z,55.19
2022-09-12T01:34:31.994Z,54.57
2022-09-12T01:35:31.966Z,54.23
2022-09-12T01:36:31.982Z,54.23
2022-09-12T01:37:31.968Z,54.87
2022-09-12T01:38:31.964Z,59.97
2022-09-12T01:39:31.959Z,54.90
2022-09-12T01:40:32.001Z,59.11
2022-09-12T01:41:31.953Z,58.66
2022-09-12T01:42:31.942Z,65.95
2022-09-12T01:43:31.937Z,55.83
2022-09-12T01:44:31.937Z,54.85
2022-09-12T01:45:31.971Z,58.60
2022-09-12T01:46:31.936Z,59.44
2022-09-12T01:47:31.915Z,54.51
2022-09-12T01:48:31.924Z,55.84
2022-09-12T01:49:31.898Z,58.60
2022-09-12T01:50:31.909Z,57.95
2022-09-12T01:51:31.889Z,54.67
2022-09-12T01:52:31.871Z,58.12
2022-09-12T01:53:31.884Z,59.24
2022-09-12T01:54:31.863Z,57.56
2022-09-12T01:55:31.900Z,54.09
2022-09-12T01:56:31.859Z,53.69
2022-09-12T01:57:31.851Z,58.49
2022-09-12T01:58:31.855Z,54.74
2022-09-12T01:59:31.843Z,60.90
2022-09-12T02:00:31.851Z,57.07
2022-09-12T02:01:31.856Z,53.79
2022-09-12T02:02:31.819Z,64.62
2022-09-12T02:03:31.816Z,58.88
2022-09-12T02:04:34.228Z,53.85
2022-09-12T02:05:32.821Z,55.49
2022-09-12T02:06:31.807Z,55.94
2022-09-12T02:07:31.852Z,59.58
2022-09-12T02:08:31.790Z,55.42
2022-09-12T02:09:31.792Z,57.58
2022-09-12T02:10:32.661Z,54.84
2022-09-12T02:11:32.779Z,54.91
2022-09-12T02:12:31.781Z,58.34
2022-09-12T02:13:31.766Z,59.51
2022-09-12T02:14:31.755Z,58.91
2022-09-12T02:15:31.750Z,60.58
2022-09-12T02:16:31.782Z,59.00
2022-09-12T02:17:31.739Z,54.53
2022-09-12T02:18:31.727Z,54.50
2022-09-12T02:19:31.710Z,54.48
2022-09-12T02:20:47.281Z,61.31
2022-09-12T02:21:33.734Z,60.88
2022-09-12T02:22:31.722Z,55.07
2022-09-12T02:23:31.695Z,63.21
2022-09-12T02:24:31.693Z,59.56
2022-09-12T02:25:31.714Z,54.15
2022-09-12T02:26:31.674Z,54.10
2022-09-12T02:27:31.670Z,54.20
2022-09-12T02:28:31.671Z,59.49
2022-09-12T02:29:31.663Z,62.77
2022-09-12T02:30:31.694Z,59.42
2022-09-12T02:31:31.646Z,53.93
2022-09-12T02:32:31.687Z,59.13
2022-09-12T02:33:31.665Z,58.12
2022-09-12T02:34:31.626Z,60.17
2022-09-12T02:35:31.634Z,57.15
2022-09-12T02:36:31.617Z,55.94
2022-09-12T02:37:31.611Z,63.14
2022-09-12T02:38:31.658Z,61.96
2022-09-12T02:39:31.586Z,55.03
2022-09-12T02:40:31.586Z,58.76
2022-09-12T02:41:31.574Z,54.07
2022-09-12T02:42:31.579Z,61.01
2022-09-12T02:43:31.563Z,62.67
2022-09-12T02:44:31.562Z,68.68
2022-09-12T02:45:31.579Z,61.80
2022-09-12T02:46:31.534Z,63.17
2022-09-12T02:47:31.538Z,58.03
2022-09-12T02:48:31.540Z,63.47
2022-09-12T02:49:31.536Z,57.62
2022-09-12T02:50:31.525Z,53.57
2022-09-12T02:51:31.524Z,55.34
2022-09-12T02:52:31.507Z,64.47
2022-09-12T02:53:31.494Z,63.94
2022-09-12T02:54:31.507Z,60.91
2022-09-12T02:55:31.495Z,63.70
2022-09-12T02:56:31.475Z,67.28
2022-09-12T02:57:31.463Z,61.61
2022-09-12T02:58:31.463Z,63.60
2022-09-12T02:59:31.457Z,64.54
2022-09-12T03:00:31.460Z,53.75
2022-09-12T03:01:31.489Z,55.24
2022-09-12T03:02:31.439Z,61.20
2022-09-12T03:03:31.448Z,59.52
2022-09-12T03:04:31.418Z,65.13
2022-09-12T03:05:31.428Z,66.94
2022-09-12T03:06:31.417Z,58.20
2022-09-12T03:07:31.394Z,65.72
2022-09-12T03:08:31.401Z,63.04
2022-09-12T03:09:31.459Z,66.96
2022-09-12T03:10:31.403Z,58.81
2022-09-12T03:11:31.383Z,64.65
2022-09-12T03:12:31.354Z,70.44
2022-09-12T03:13:31.363Z,64.71
2022-09-12T03:14:31.350Z,57.63
2022-09-12T03:15:31.356Z,63.64
2022-09-12T03:16:31.372Z,70.61
2022-09-12T03:17:31.350Z,55.84
2022-09-12T03:18:31.322Z,63.19
2022-09-12T03:19:31.309Z,65.56
2022-09-12T03:20:31.313Z,59.18
2022-09-12T03:21:31.315Z,67.83
2022-09-12T03:22:31.297Z,70.45
2022-09-12T03:23:31.296Z,65.16
2022-09-12T03:24:31.277Z,71.41
2022-09-12T03:25:31.272Z,65.75
2022-09-12T03:26:31.285Z,68.55
2022-09-12T03:27:31.261Z,56.72
2022-09-12T03:28:31.254Z,72.44
2022-09-12T03:29:31.243Z,67.94
2022-09-12T03:30:31.285Z,68.47
2022-09-12T03:31:31.246Z,63.44
2022-09-12T03:32:31.270Z,69.12
2022-09-12T03:33:31.261Z,68.68
2022-09-12T03:34:31.226Z,69.23
2022-09-12T03:35:31.213Z,69.14
2022-09-12T03:36:31.196Z,71.91
2022-09-12T03:37:31.201Z,68.77
2022-09-12T03:38:31.203Z,68.33
2022-09-12T03:39:31.185Z,68.93
2022-09-12T03:40:31.168Z,69.61
2022-09-12T03:41:31.173Z,73.32
2022-09-12T03:42:31.172Z,61.48
2022-09-12T03:43:32.163Z,70.20
2022-09-12T03:44:31.151Z,70.90
2022-09-12T03:45:31.213Z,69.48
2022-09-12T03:46:31.180Z,68.46
2022-09-12T03:47:31.143Z,64.70
2022-09-12T03:48:31.114Z,59.97
2022-09-12T03:49:32.133Z,64.68
2022-09-12T03:50:31.097Z,64.93
2022-09-12T03:51:31.137Z,69.36
2022-09-12T03:52:31.096Z,65.59
2022-09-12T03:53:31.096Z,71.54
2022-09-12T03:54:31.087Z,68.78
2022-09-12T03:55:31.068Z,72.43
2022-09-12T03:56:31.070Z,64.17
2022-09-12T03:57:32.079Z,70.53
2022-09-12T03:58:31.076Z,61.92
2022-09-12T03:59:31.080Z,66.19
2022-09-12T04:00:31.041Z,66.96
2022-09-12T04:01:31.087Z,68.49
2022-09-12T04:02:31.095Z,72.32
2022-09-12T04:03:31.018Z,70.39
2022-09-12T04:04:31.041Z,68.66
2022-09-12T04:05:31.009Z,68.32
2022-09-12T04:06:31.004Z,66.06
2022-09-12T04:07:31.001Z,72.02
2022-09-12T04:08:31.004Z,74.09
2022-09-12T04:09:30.992Z,67.51
2022-09-12T04:10:30.987Z,69.93
2022-09-12T04:11:30.967Z,71.03
2022-09-12T04:12:30.974Z,73.53
2022-09-12T04:13:30.975Z,62.46
2022-09-12T04:14:30.951Z,66.92
2022-09-12T04:15:30.946Z,63.68
2022-09-12T04:16:30.944Z,66.66
2022-09-12T04:17:30.955Z,74.69
2022-09-12T04:18:30.962Z,71.83
2022-09-12T04:19:30.910Z,66.86
2022-09-12T04:20:30.901Z,71.24
2022-09-12T04:21:30.906Z,66.92
2022-09-12T04:22:30.886Z,67.33
2022-09-12T04:23:30.892Z,70.91
2022-09-12T04:24:30.889Z,71.15
2022-09-12T04:25:30.862Z,70.44
2022-09-12T04:26:30.866Z,68.07
2022-09-12T04:27:30.858Z,68.91
2022-09-12T04:28:30.845Z,72.60
2022-09-12T04:29:30.849Z,72.70
2022-09-12T04:30:30.881Z,71.52
2022-09-12T04:31:30.847Z,67.53
2022-09-12T04:32:30.817Z,71.95
2022-09-12T04:33:30.808Z,71.81
2022-09-12T04:34:30.813Z,66.26
2022-09-12T04:35:30.801Z,67.19
2022-09-12T04:36:30.797Z,71.13
2022-09-12T04:37:30.778Z,66.86
2022-09-12T04:38:30.828Z,73.38
2022-09-12T04:39:30.785Z,73.18
2022-09-12T04:40:30.773Z,73.32
2022-09-12T04:41:30.791Z,70.86
2022-09-12T04:42:30.759Z,68.58
2022-09-12T04:43:30.752Z,72.84
2022-09-12T04:44:30.769Z,72.25
2022-09-12T04:45:30.772Z,71.39
2022-09-12T04:46:30.728Z,71.58
2022-09-12T04:47:31.325Z,70.53
2022-09-12T04:48:32.124Z,71.37
2022-09-12T04:49:30.705Z,71.40
2022-09-12T04:50:30.743Z,71.36
2022-09-12T04:51:30.740Z,70.96
2022-09-12T04:52:30.724Z,73.86
2022-09-12T04:53:30.684Z,71.01
2022-09-12T04:54:30.685Z,72.42
2022-09-12T04:55:30.698Z,72.63
2022-09-12T04:56:30.673Z,70.83
2022-09-12T04:57:31.239Z,69.81
2022-09-12T04:58:30.653Z,72.08
2022-09-12T04:59:30.648Z,68.15
2022-09-12T05:00:30.742Z,71.64
2022-09-12T05:01:30.773Z,67.59
2022-09-12T05:02:30.662Z,72.00
2022-09-12T05:03:30.667Z,65.99
2022-09-12T05:04:30.610Z,70.53
2022-09-12T05:05:30.791Z,70.12
2022-09-12T05:06:30.657Z,68.09
2022-09-12T05:07:30.666Z,70.50
2022-09-12T05:08:30.594Z,74.43
2022-09-12T05:09:30.574Z,71.51
2022-09-12T05:10:30.580Z,68.12
2022-09-12T05:11:52.989Z,69.39
2022-09-12T05:12:32.547Z,69.32
2022-09-12T05:13:30.560Z,66.76
2022-09-12T05:14:30.569Z,73.54
2022-09-12T05:15:30.528Z,73.72
2022-09-12T05:16:30.608Z,73.51
2022-09-12T05:17:30.530Z,63.41
2022-09-12T05:18:30.520Z,72.25
2022-09-12T05:19:30.541Z,71.19
2022-09-12T05:20:30.517Z,73.18
2022-09-12T05:21:30.511Z,78.18
2022-09-12T05:22:30.497Z,69.24
2022-09-12T05:23:30.471Z,75.77
2022-09-12T05:24:30.484Z,68.91
2022-09-12T05:25:30.492Z,73.54
2022-09-12T05:26:30.472Z,72.46
2022-09-12T05:27:30.452Z,71.57
2022-09-12T05:28:30.444Z,66.75
2022-09-12T05:29:30.429Z,72.32
2022-09-12T05:30:30.473Z,76.08
2022-09-12T05:31:31.339Z,73.80
2022-09-12T05:32:30.449Z,79.07
2022-09-12T05:33:30.427Z,73.96
2022-09-12T05:34:30.405Z,71.20
2022-09-12T05:35:30.393Z,70.13
2022-09-12T05:36:30.444Z,71.00
2022-09-12T05:37:30.412Z,71.67
2022-09-12T05:38:30.372Z,75.19
2022-09-12T05:39:30.377Z,71.31
2022-09-12T05:40:30.353Z,69.07
2022-09-12T05:41:30.356Z,75.01
2022-09-12T05:42:30.370Z,70.65
2022-09-12T05:43:31.361Z,71.47
2022-09-12T05:44:30.333Z,74.38
2022-09-12T05:45:30.355Z,74.04
2022-09-12T05:46:30.320Z,73.38
2022-09-12T05:47:30.401Z,71.49
2022-09-12T05:48:30.320Z,73.37
2022-09-12T05:49:30.310Z,62.97
2022-09-12T05:50:30.340Z,72.03
2022-09-12T05:51:30.306Z,71.79
2022-09-12T05:52:30.299Z,72.23
2022-09-12T05:53:30.299Z,73.89
2022-09-12T05:54:31.715Z,73.36
2022-09-12T05:55:31.279Z,73.51
2022-09-12T05:56:30.260Z,70.15
2022-09-12T05:57:31.251Z,67.03
2022-09-12T05:58:30.301Z,72.87
2022-09-12T05:59:30.227Z,72.68
2022-09-12T06:00:33.381Z,72.17
2022-09-12T06:01:31.338Z,71.22
2022-09-12T06:02:30.255Z,65.12
2022-09-12T06:03:30.234Z,72.77
2022-09-12T06:04:30.211Z,75.05
2022-09-12T06:05:30.835Z,75.93
2022-09-12T06:06:30.201Z,68.30
2022-09-12T06:07:30.179Z,72.47
2022-09-12T06:08:30.199Z,72.36
2022-09-12T06:09:30.178Z,73.77
2022-09-12T06:10:30.163Z,72.72
2022-09-12T06:11:30.223Z,70.64
2022-09-12T06:12:30.155Z,71.06
2022-09-12T06:13:30.179Z,73.04
2022-09-12T06:14:30.176Z,69.55
2022-09-12T06:15:30.202Z,73.98
2022-09-12T06:16:30.166Z,71.55
2022-09-12T06:17:30.114Z,73.71
2022-09-12T06:18:30.113Z,71.63
2022-09-12T06:19:30.119Z,72.97
2022-09-12T06:20:30.121Z,73.22
2022-09-12T06:21:30.149Z,74.50
2022-09-12T06:22:30.134Z,71.51
2022-09-12T06:23:30.077Z,70.89
2022-09-12T06:24:30.085Z,73.51
2022-09-12T06:25:30.054Z,70.16
2022-09-12T06:26:30.070Z,71.69
2022-09-12T06:27:30.065Z,72.45
2022-09-12T06:28:30.052Z,74.37
2022-09-12T06:29:30.046Z,72.01
2022-09-12T06:30:30.068Z,72.92
2022-09-12T06:31:30.025Z,67.08
2022-09-12T06:32:30.022Z,69.80
2022-09-12T06:33:30.002Z,71.37
2022-09-12T06:34:30.644Z,75.15
2022-09-12T06:35:30.007Z,71.07
2022-09-12T06:36:30.006Z,70.43
2022-09-12T06:37:29.985Z,71.48
2022-09-12T06:38:30.021Z,70.12
2022-09-12T06:39:29.976Z,76.23
2022-09-12T06:40:29.962Z,71.45
2022-09-12T06:41:29.966Z,76.16
2022-09-12T06:42:29.959Z,73.16
2022-09-12T06:43:29.949Z,71.07
2022-09-12T06:44:29.958Z,69.34
2022-09-12T06:45:29.935Z,72.31
2022-09-12T06:46:29.916Z,69.67
2022-09-12T06:47:29.919Z,72.66
2022-09-12T06:48:29.912Z,71.26
2022-09-12T06:49:29.919Z,68.65
2022-09-12T06:50:29.916Z,72.24
2022-09-12T06:51:29.937Z,71.00
2022-09-12T06:52:29.939Z,72.96
2022-09-12T06:53:29.884Z,72.91
2022-09-12T06:54:29.873Z,68.23
2022-09-12T06:56:01.845Z,71.08
2022-09-12T06:56:29.869Z,72.38
2022-09-12T06:57:29.857Z,71.29
2022-09-12T06:58:29.854Z,66.71
2022-09-12T06:59:29.844Z,71.11
2022-09-12T07:00:29.849Z,71.29
2022-09-12T07:01:29.917Z,73.93
2022-09-12T07:02:29.839Z,69.39
2022-09-12T07:03:29.825Z,71.84
2022-09-12T07:04:29.811Z,72.61
2022-09-12T07:05:29.822Z,69.67
2022-09-12T07:06:29.831Z,72.21
2022-09-12T07:07:29.781Z,71.23
2022-09-12T07:08:29.805Z,73.16
2022-09-12T07:09:29.777Z,72.28
2022-09-12T07:10:29.797Z,70.45
2022-09-12T07:11:29.763Z,67.62
2022-09-12T07:12:29.781Z,66.19
2022-09-12T07:13:29.757Z,71.23
2022-09-12T07:14:29.760Z,68.87
2022-09-12T07:15:29.752Z,72.57
2022-09-12T07:16:30.409Z,73.25
2022-09-12T07:17:29.778Z,69.39
2022-09-12T07:18:29.745Z,71.88
2022-09-12T07:19:29.719Z,68.81
2022-09-12T07:20:29.761Z,73.24
2022-09-12T07:21:29.733Z,73.81
2022-09-12T07:22:30.709Z,71.85
2022-09-12T07:23:29.694Z,71.27
2022-09-12T07:24:29.685Z,71.96
2022-09-12T07:25:29.697Z,69.53
2022-09-12T07:26:29.690Z,72.74
2022-09-12T07:27:29.728Z,68.09
2022-09-12T07:28:29.672Z,71.99
2022-09-12T07:29:37.917Z,73.43
2022-09-12T07:30:31.691Z,69.62
2022-09-12T07:31:29.676Z,74.09
2022-09-12T07:32:30.376Z,69.62
2022-09-12T07:33:29.632Z,69.35
2022-09-12T07:34:29.627Z,73.80
2022-09-12T07:35:29.634Z,70.64
2022-09-12T07:36:29.623Z,70.90
2022-09-12T07:37:29.615Z,70.66
2022-09-12T07:38:30.371Z,71.41
2022-09-12T07:39:29.595Z,72.20
2022-09-12T07:40:29.586Z,72.42
2022-09-12T07:41:29.595Z,69.64
2022-09-12T07:42:29.578Z,70.92
2022-09-12T07:43:29.570Z,70.53
2022-09-12T07:44:29.573Z,72.03
2022-09-12T07:45:29.562Z,70.63
2022-09-12T07:46:29.573Z,65.00
2022-09-12T07:47:29.537Z,68.90
2022-09-12T07:48:29.538Z,72.51
2022-09-12T07:49:29.529Z,68.23
2022-09-12T07:50:29.526Z,68.36
2022-09-12T07:51:29.552Z,72.59
2022-09-12T07:52:29.526Z,71.42
2022-09-12T07:53:29.528Z,71.09
2022-09-12T07:54:29.495Z,70.16
2022-09-12T07:55:29.511Z,73.18
2022-09-12T07:56:31.889Z,68.33
2022-09-12T07:57:30.498Z,64.40
2022-09-12T07:58:29.498Z,71.61
2022-09-12T07:59:51.363Z,71.53
2022-09-12T08:00:31.481Z,70.30
2022-09-12T08:01:29.523Z,69.33
2022-09-12T08:02:29.604Z,69.78
2022-09-12T08:03:29.465Z,71.45
2022-09-12T08:04:29.455Z,71.64
2022-09-12T08:05:29.446Z,70.09
2022-09-12T08:06:29.474Z,69.96
2022-09-12T08:07:29.466Z,69.05
2022-09-12T08:08:29.462Z,74.00
2022-09-12T08:09:29.403Z,71.31
2022-09-12T08:10:29.422Z,70.17
2022-09-12T08:11:29.425Z,71.91
2022-09-12T08:12:29.481Z,68.88
2022-09-12T08:13:29.398Z,76.03
2022-09-12T08:14:29.406Z,74.27
2022-09-12T08:15:29.442Z,74.13
2022-09-12T08:16:29.378Z,68.52
2022-09-12T08:17:29.394Z,68.96
2022-09-12T08:18:29.361Z,72.10
2022-09-12T08:19:29.358Z,68.87
2022-09-12T08:20:29.445Z,69.32
2022-09-12T08:21:29.346Z,71.37
2022-09-12T08:22:29.386Z,71.21
2022-09-12T08:23:29.337Z,68.41
2022-09-12T08:24:29.351Z,71.00
2022-09-12T08:25:29.326Z,72.17
2022-09-12T08:26:29.334Z,71.32
2022-09-12T08:27:29.322Z,71.42
2022-09-12T08:28:29.322Z,72.07
2022-09-12T08:29:29.303Z,70.35
2022-09-12T08:30:29.308Z,72.19
2022-09-12T08:31:29.283Z,72.32
2022-09-12T08:32:29.273Z,68.08
2022-09-12T08:33:29.278Z,73.37
2022-09-12T08:34:29.273Z,71.20
2022-09-12T08:35:29.297Z,71.78
2022-09-12T08:36:29.257Z,67.83
2022-09-12T08:37:29.245Z,71.90
2022-09-12T08:38:29.265Z,73.54
2022-09-12T08:39:29.253Z,71.58
2022-09-12T08:40:29.243Z,70.67
2022-09-12T08:41:29.218Z,66.86
2022-09-12T08:42:29.221Z,70.43
2022-09-12T08:43:29.206Z,67.68
2022-09-12T08:44:29.256Z,69.86
2022-09-12T08:45:29.209Z,70.19
2022-09-12T08:46:29.249Z,71.95
2022-09-12T08:47:29.184Z,73.30
2022-09-12T08:48:29.340Z,70.12
2022-09-12T08:49:29.204Z,68.29
2022-09-12T08:50:29.188Z,68.57
2022-09-12T08:51:29.173Z,69.56
2022-09-12T08:52:29.148Z,69.84
2022-09-12T08:53:29.136Z,70.59
2022-09-12T08:54:29.140Z,69.56
2022-09-12T08:55:29.128Z,69.30
2022-09-12T08:56:31.660Z,61.16
2022-09-12T08:57:30.128Z,75.44
2022-09-12T08:58:29.106Z,71.72
2022-09-12T08:59:29.112Z,69.72
2022-09-12T09:00:29.117Z,70.09
2022-09-12T09:01:29.135Z,70.36
2022-09-12T09:02:29.154Z,72.14
2022-09-12T09:03:29.096Z,71.63
2022-09-12T09:04:29.140Z,71.27
2022-09-12T09:05:29.094Z,69.54
2022-09-12T09:06:29.161Z,67.00
2022-09-12T09:07:29.069Z,70.55
2022-09-12T09:08:29.121Z,65.80
2022-09-12T09:09:29.914Z,74.41
2022-09-12T09:10:29.026Z,70.99
2022-09-12T09:11:29.102Z,70.26
2022-09-12T09:12:29.005Z,68.47
2022-09-12T09:13:29.002Z,68.47
2022-09-12T09:14:29.020Z,71.27
2022-09-12T09:15:29.036Z,71.16
2022-09-12T09:16:29.002Z,72.94
2022-09-12T09:17:28.982Z,71.46
2022-09-12T09:18:29.140Z,70.01
2022-09-12T09:19:28.988Z,68.90
2022-09-12T09:20:28.960Z,74.38
2022-09-12T09:21:28.948Z,71.65
2022-09-12T09:22:28.957Z,69.76
2022-09-12T09:23:28.940Z,73.61
2022-09-12T09:24:28.948Z,69.02
2022-09-12T09:25:28.935Z,70.89
2022-09-12T09:26:28.932Z,71.08
2022-09-12T09:27:40.591Z,67.30
2022-09-12T09:28:30.943Z,71.38
2022-09-12T09:29:28.936Z,72.93
2022-09-12T09:30:28.970Z,69.27
2022-09-12T09:31:28.957Z,67.44
2022-09-12T09:32:28.922Z,72.94
2022-09-12T09:33:28.887Z,68.49
2022-09-12T09:34:29.400Z,70.19
2022-09-12T09:35:32.104Z,72.70
2022-09-12T09:36:29.909Z,70.81
2022-09-12T09:37:28.904Z,69.83
2022-09-12T09:38:28.876Z,74.84
2022-09-12T09:39:28.852Z,72.31
2022-09-12T09:40:28.856Z,69.06
2022-09-12T09:41:28.871Z,70.52
2022-09-12T09:42:28.830Z,68.84
2022-09-12T09:43:28.830Z,67.69
2022-09-12T09:44:28.813Z,71.06
2022-09-12T09:45:28.817Z,71.98
2022-09-12T09:46:28.842Z,71.13
2022-09-12T09:47:28.798Z,72.25
2022-09-12T09:48:28.813Z,71.79
2022-09-12T09:49:28.801Z,75.03
2022-09-12T09:50:28.785Z,73.14
2022-09-12T09:51:28.855Z,72.50
2022-09-12T09:52:28.771Z,69.35
2022-09-12T09:53:28.788Z,71.07
2022-09-12T09:54:28.750Z,72.25
2022-09-12T09:55:28.738Z,70.31
2022-09-12T09:56:28.773Z,67.28
2022-09-12T09:57:28.733Z,71.81
2022-09-12T09:58:28.735Z,69.06
2022-09-12T09:59:28.749Z,70.38
2022-09-12T10:00:28.711Z,70.32
2022-09-12T10:01:28.738Z,72.36
2022-09-12T10:02:28.711Z,70.40
2022-09-12T10:03:28.713Z,71.27
2022-09-12T10:04:28.725Z,72.96
2022-09-12T10:05:28.724Z,68.47
2022-09-12T10:06:28.713Z,73.13
2022-09-12T10:07:28.701Z,73.40
2022-09-12T10:08:28.679Z,68.31
2022-09-12T10:09:28.696Z,73.66
2022-09-12T10:10:28.659Z,70.42
2022-09-12T10:11:28.657Z,71.63
2022-09-12T10:12:28.661Z,74.60
2022-09-12T10:13:28.634Z,71.39
2022-09-12T10:14:28.640Z,68.07
2022-09-12T10:15:28.688Z,71.82
2022-09-12T10:16:29.405Z,72.91
2022-09-12T10:17:33.215Z,66.20
2022-09-12T10:18:30.598Z,72.62
2022-09-12T10:19:28.649Z,70.75
2022-09-12T10:20:28.601Z,72.96
2022-09-12T10:21:28.586Z,60.94
2022-09-12T10:22:28.586Z,69.38
2022-09-12T10:23:28.575Z,67.37
2022-09-12T10:24:28.569Z,72.54
2022-09-12T10:25:28.620Z,67.57
2022-09-12T10:26:29.469Z,71.48
2022-09-12T10:27:28.541Z,67.52
2022-09-12T10:28:28.546Z,69.79
2022-09-12T10:29:28.529Z,70.48
2022-09-12T10:30:28.827Z,70.68
2022-09-12T10:31:28.548Z,71.57
2022-09-12T10:32:30.922Z,67.25
2022-09-12T10:33:29.528Z,69.84
2022-09-12T10:34:28.503Z,69.99
2022-09-12T10:35:28.536Z,66.08
2022-09-12T10:36:28.512Z,70.41
2022-09-12T10:37:29.440Z,68.19
2022-09-12T10:38:28.487Z,72.11
2022-09-12T10:39:28.474Z,68.50
2022-09-12T10:40:28.471Z,69.53
2022-09-12T10:41:28.493Z,70.92
2022-09-12T10:42:28.470Z,70.49
2022-09-12T10:43:28.456Z,71.46
2022-09-12T10:44:28.446Z,68.85
2022-09-12T10:45:28.486Z,70.68
2022-09-12T10:46:28.523Z,66.22
2022-09-12T10:47:28.486Z,69.40
2022-09-12T10:48:28.414Z,71.64
2022-09-12T10:49:28.450Z,68.29
2022-09-12T10:50:28.421Z,69.48
2022-09-12T10:51:28.426Z,72.73
2022-09-12T10:52:28.426Z,71.55
2022-09-12T10:53:32.387Z,67.56
2022-09-12T10:54:30.420Z,68.87
2022-09-12T10:55:28.489Z,70.83
2022-09-12T10:56:28.389Z,69.87
2022-09-12T10:57:28.405Z,71.85
2022-09-12T10:58:28.379Z,67.99
2022-09-12T10:59:28.377Z,67.25
2022-09-12T11:00:28.362Z,73.27
2022-09-12T11:01:28.411Z,70.36
2022-09-12T11:02:28.398Z,71.73
2022-09-12T11:03:29.371Z,73.82
2022-09-12T11:04:28.338Z,70.01
2022-09-12T11:05:28.346Z,71.65
2022-09-12T11:06:28.353Z,69.41
2022-09-12T11:07:28.360Z,68.85
2022-09-12T11:08:28.344Z,69.22
2022-09-12T11:09:28.328Z,70.12
2022-09-12T11:10:30.191Z,70.74
2022-09-12T11:11:28.355Z,71.96
2022-09-12T11:12:28.348Z,68.67
2022-09-12T11:13:28.311Z,70.93
2022-09-12T11:14:28.299Z,71.46
2022-09-12T11:15:28.395Z,70.30
2022-09-12T11:16:28.309Z,66.40
2022-09-12T11:17:28.935Z,68.55
2022-09-12T11:18:29.366Z,70.80
2022-09-12T11:19:28.269Z,71.84
2022-09-12T11:20:28.305Z,69.52
2022-09-12T11:21:28.611Z,68.64
2022-09-12T11:22:31.757Z,69.16
2022-09-12T11:23:29.277Z,68.21
2022-09-12T11:24:28.260Z,70.62
2022-09-12T11:25:28.276Z,70.92
2022-09-12T11:26:28.233Z,68.73
2022-09-12T11:27:28.266Z,71.67
2022-09-12T11:28:28.265Z,70.87
2022-09-12T11:29:28.257Z,71.14
2022-09-12T11:30:28.308Z,70.73
2022-09-12T11:31:28.226Z,71.62
2022-09-12T11:32:28.206Z,71.82
2022-09-12T11:33:28.235Z,70.10
2022-09-12T11:34:28.194Z,70.62
2022-09-12T11:35:28.194Z,72.12
2022-09-12T11:36:28.194Z,71.68
2022-09-12T11:37:28.222Z,70.28
2022-09-12T11:38:28.168Z,69.82
2022-09-12T11:39:28.201Z,66.69
2022-09-12T11:40:28.220Z,69.51
2022-09-12T11:41:28.164Z,73.03
2022-09-12T11:42:28.171Z,72.25
2022-09-12T11:43:28.152Z,71.50
2022-09-12T11:44:28.147Z,71.65
2022-09-12T11:45:28.125Z,74.40
2022-09-12T11:46:28.234Z,68.48
2022-09-12T11:47:28.107Z,71.34
2022-09-12T11:48:28.149Z,68.98
2022-09-12T11:49:28.829Z,69.17
2022-09-12T11:50:28.152Z,71.34
2022-09-12T11:51:28.092Z,72.97
2022-09-12T11:52:28.114Z,71.26
2022-09-12T11:53:28.081Z,72.42
2022-09-12T11:54:28.090Z,72.63
2022-09-12T11:55:28.061Z,70.41
2022-09-12T11:56:28.088Z,68.52
2022-09-12T11:57:28.059Z,69.11
2022-09-12T11:58:28.036Z,70.13
2022-09-12T11:59:28.051Z,69.16
2022-09-12T12:00:28.854Z,69.65
2022-09-12T12:01:28.033Z,68.08
2022-09-12T12:02:28.091Z,73.36
2022-09-12T12:03:28.062Z,66.21
2022-09-12T12:04:27.993Z,70.00
2022-09-12T12:05:28.014Z,69.63
2022-09-12T12:06:28.034Z,73.90
2022-09-12T12:07:28.003Z,64.57
2022-09-12T12:08:28.871Z,70.43
2022-09-12T12:09:27.969Z,69.33
2022-09-12T12:10:27.983Z,72.07
2022-09-12T12:11:27.978Z,68.18
2022-09-12T12:12:27.964Z,70.41
2022-09-12T12:13:27.974Z,71.13
2022-09-12T12:14:27.929Z,71.00
2022-09-12T12:15:28.000Z,70.10
2022-09-12T12:16:28.016Z,70.32
2022-09-12T12:17:27.918Z,70.95
2022-09-12T12:18:27.936Z,68.17
2022-09-12T12:19:27.910Z,70.77
2022-09-12T12:20:28.938Z,70.34
2022-09-12T12:21:27.957Z,73.29
2022-09-12T12:22:27.926Z,70.71
2022-09-12T12:23:27.914Z,71.64
2022-09-12T12:24:27.891Z,70.54
2022-09-12T12:25:30.031Z,71.11
2022-09-12T12:26:28.951Z,70.42
2022-09-12T12:27:27.891Z,67.51
2022-09-12T12:28:27.880Z,70.40
2022-09-12T12:29:27.845Z,70.35
2022-09-12T12:30:27.856Z,65.75
2022-09-12T12:31:27.898Z,73.35
2022-09-12T12:32:27.857Z,69.58
2022-09-12T12:33:27.935Z,68.44
2022-09-12T12:34:27.834Z,71.68
2022-09-12T12:35:28.464Z,73.87
2022-09-12T12:36:27.807Z,74.26
2022-09-12T12:37:28.091Z,73.37
2022-09-12T12:38:27.778Z,69.82
2022-09-12T12:39:28.946Z,63.94
2022-09-12T12:40:27.768Z,71.32
2022-09-12T12:41:27.781Z,71.99
2022-09-12T12:42:27.798Z,70.54
2022-09-12T12:43:27.795Z,71.31
2022-09-12T12:44:27.738Z,70.94
2022-09-12T12:45:27.737Z,70.43
2022-09-12T12:46:27.945Z,69.26
2022-09-12T12:47:27.785Z,75.18
2022-09-12T12:48:27.978Z,74.97
2022-09-12T12:49:27.713Z,71.05
2022-09-12T12:50:27.701Z,70.53
2022-09-12T12:51:27.709Z,71.45
2022-09-12T12:52:27.686Z,70.58